| time (UTC) | temp C | wind direction | speed KPH | gust KPH | rain 1hr cm | rain 24hr cm | rain mn cm | humidity % | barometer mb |
| 20260504130759 | 14 | 243 | 3.2 | 12.9 | 0.00 | 0.00 | 0.00 | 74 | 1003.3 |
| 20260504110712 | 8 | 169 | 0.0 | 0.0 | 0.00 | 0.00 | 0.00 | 82 | 1003.9 |
| 20260504080457 | 8 | 190 | 0.0 | 0.0 | 0.00 | 0.00 | 0.00 | 84 | 1005.0 |
| 20260504050355 | 12 | 198 | 0.0 | 0.0 | 0.00 | 0.00 | 0.00 | 71 | 1006.6 |
| 20260504044853 | 12 | 198 | 0.0 | 0.0 | 0.00 | 0.00 | 0.00 | 69 | 1006.5 |
| 20260504043347 | 13 | 197 | 0.0 | 0.0 | 0.00 | 0.00 | 0.00 | 67 | 1006.7 |
| 20260504041848 | 13 | 186 | 0.0 | 0.0 | 0.00 | 0.00 | 0.00 | 65 | 1006.8 |
| 20260504040320 | 14 | 229 | 1.6 | 3.2 | 0.00 | 0.00 | 0.00 | 63 | 1006.8 |
| 20260504034817 | 14 | 221 | 1.6 | 6.4 | 0.00 | 0.00 | 0.00 | 63 | 1006.9 |
| 20260504033316 | 14 | 220 | 0.0 | 3.2 | 0.00 | 0.00 | 0.00 | 61 | 1007.0 |
| 20260504031809 | 15 | 206 | 0.0 | 3.2 | 0.00 | 0.00 | 0.00 | 59 | 1007.1 |
| 20260504030307 | 15 | 220 | 1.6 | 11.3 | 0.00 | 0.00 | 0.00 | 58 | 1007.0 |
| 20260504024801 | 15 | 237 | 1.6 | 8.0 | 0.00 | 0.00 | 0.00 | 57 | 1007.0 |
| 20260504023258 | 16 | 227 | 1.6 | 8.0 | 0.00 | 0.00 | 0.00 | 56 | 1006.9 |
| 20260504021756 | 16 | 221 | 1.6 | 6.4 | 0.00 | 0.00 | 0.00 | 54 | 1006.9 |
| 20260504020251 | 16 | 205 | 1.6 | 6.4 | 0.00 | 0.00 | 0.00 | 53 | 1006.8 |
| 20260504014751 | 17 | 238 | 1.6 | 6.4 | 0.00 | 0.00 | 0.00 | 51 | 1006.8 |
| 20260504013239 | 17 | 209 | 1.6 | 8.0 | 0.00 | 0.00 | 0.00 | 50 | 1006.8 |
| 20260504011736 | 18 | 222 | 1.6 | 9.7 | 0.00 | 0.00 | 0.00 | 49 | 1006.7 |
| 20260504010219 | 18 | 217 | 1.6 | 6.4 | 0.00 | 0.00 | 0.00 | 48 | 1006.6 |
| 20260504004719 | 19 | 250 | 3.2 | 11.3 | 0.00 | 0.00 | 0.00 | 46 | 1006.5 |
| 20260504003217 | 20 | 207 | 1.6 | 11.3 | 0.00 | 0.00 | 0.00 | 45 | 1006.5 |
| 20260504001713 | 20 | 250 | 3.2 | 16.1 | 0.00 | 0.00 | 0.00 | 43 | 1006.5 |
| 20260504000212 | 20 | 271 | 4.8 | 16.1 | 0.00 | 0.00 | 0.00 | 42 | 1006.6 |
| 20260503234709 | 21 | 295 | 3.2 | 14.5 | 0.00 | 0.00 | 0.00 | 43 | 1006.6 |
| 20260503233208 | 21 | 247 | 4.8 | 12.9 | 0.00 | 0.00 | 0.00 | 44 | 1006.6 |
| 20260503231708 | 21 | 241 | 3.2 | 12.9 | 0.00 | 0.00 | 0.00 | 45 | 1006.7 |
| 20260503230208 | 21 | 229 | 3.2 | 12.9 | 0.00 | 0.00 | 0.00 | 45 | 1006.7 |
| 20260503224711 | 21 | 250 | 3.2 | 16.1 | 0.00 | 0.00 | 0.00 | 45 | 1006.8 |
| 20260503223205 | 21 | 300 | 6.4 | 17.7 | 0.00 | 0.00 | 0.00 | 44 | 1006.8 |
| 20260503221701 | 21 | 230 | 6.4 | 16.1 | 0.00 | 0.00 | 0.00 | 44 | 1006.8 |
| 20260503220159 | 21 | 223 | 4.8 | 16.1 | 0.00 | 0.00 | 0.00 | 44 | 1007.0 |
| 20260503214657 | 20 | 226 | 6.4 | 19.3 | 0.00 | 0.00 | 0.00 | 45 | 1007.0 |
| 20260503213156 | 20 | 223 | 6.4 | 22.5 | 0.00 | 0.00 | 0.00 | 44 | 1007.2 |
| 20260503211656 | 20 | 183 | 8.0 | 20.9 | 0.00 | 0.00 | 0.00 | 46 | 1007.3 |
| 20260503210152 | 20 | 164 | 8.0 | 20.9 | 0.00 | 0.00 | 0.00 | 46 | 1007.5 |
| 20260503204653 | 20 | 292 | 9.7 | 24.1 | 0.00 | 0.00 | 0.00 | 46 | 1007.6 |
| 20260503203153 | 20 | 219 | 6.4 | 24.1 | 0.00 | 0.00 | 0.00 | 48 | 1007.6 |
| 20260503201652 | 20 | 193 | 9.7 | 25.7 | 0.00 | 0.00 | 0.00 | 46 | 1007.9 |
| 20260503200150 | 20 | 300 | 8.0 | 22.5 | 0.00 | 0.00 | 0.00 | 48 | 1007.7 |
| 20260503194650 | 20 | 249 | 9.7 | 22.5 | 0.00 | 0.00 | 0.00 | 47 | 1007.8 |
| 20260503193150 | 18 | 287 | 11.3 | 33.8 | 0.00 | 0.00 | 0.00 | 47 | 1008.2 |
| 20260503191649 | 19 | 233 | 11.3 | 33.8 | 0.00 | 0.00 | 0.00 | 45 | 1008.0 |
| 20260503190149 | 19 | 238 | 11.3 | 38.6 | 0.00 | 0.00 | 0.00 | 45 | 1008.6 |
| 20260503184649 | 19 | 274 | 12.9 | 29.0 | 0.00 | 0.00 | 0.00 | 45 | 1008.4 |
| 20260503183146 | 19 | 228 | 12.9 | 37.0 | 0.00 | 0.00 | 0.00 | 46 | 1008.8 |
| 20260503181646 | 19 | 227 | 12.9 | 37.0 | 0.00 | 0.00 | 0.00 | 45 | 1008.8 |
| 20260503180147 | 18 | 217 | 12.9 | 37.0 | 0.00 | 0.00 | 0.00 | 45 | 1009.3 |
| 20260503174646 | 18 | 232 | 11.3 | 30.6 | 0.00 | 0.00 | 0.00 | 45 | 1009.2 |
| 20260503173147 | 18 | 261 | 11.3 | 25.7 | 0.00 | 0.00 | 0.00 | 45 | 1009.6 |
| 20260503171646 | 17 | 257 | 9.7 | 30.6 | 0.00 | 0.00 | 0.00 | 45 | 1009.8 |
| 20260503170146 | 16 | 168 | 11.3 | 33.8 | 0.00 | 0.00 | 0.00 | 49 | 1009.9 |
| 20260503160147 | 13 | 218 | 6.4 | 22.5 | 0.00 | 0.00 | 0.00 | 60 | 1011.5 |
| 20260503150139 | 11 | 169 | 6.4 | 17.7 | 0.00 | 0.00 | 0.00 | 62 | 1012.3 |
| 20260503140135 | 10 | 165 | 3.2 | 16.1 | 0.00 | 0.00 | 0.00 | 63 | 1013.3 |